createdAt,value
2018-11-23T00:02:38.552Z,43.83
2018-11-23T00:05:42.718Z,40.90
2018-11-23T00:08:46.867Z,41.13
2018-11-23T00:11:51.056Z,41.27
2018-11-23T00:14:55.310Z,42.00
2018-11-23T00:17:59.459Z,45.10
2018-11-23T00:21:03.622Z,42.73
2018-11-23T00:24:07.769Z,45.87
2018-11-23T00:27:11.936Z,45.80
2018-11-23T00:30:17.668Z,37.63
2018-11-23T00:33:21.829Z,44.80
2018-11-23T00:36:25.997Z,40.47
2018-11-23T00:39:30.153Z,42.23
2018-11-23T00:42:34.328Z,44.70
2018-11-23T00:45:43.083Z,44.53
2018-11-23T00:48:42.665Z,48.63
2018-11-23T00:51:46.841Z,47.00
2018-11-23T00:54:50.993Z,42.10
2018-11-23T00:57:55.166Z,44.23
2018-11-23T01:00:59.318Z,44.30
2018-11-23T01:04:03.498Z,53.10
2018-11-23T01:07:07.669Z,51.57
2018-11-23T01:10:14.098Z,46.63
2018-11-23T01:13:18.261Z,52.20
2018-11-23T01:16:22.413Z,46.83
2018-11-23T01:19:26.569Z,55.67
2018-11-23T01:22:30.734Z,47.80
2018-11-23T01:25:34.881Z,46.23
2018-11-23T01:28:39.045Z,41.80
2018-11-23T01:31:43.267Z,50.27
2018-11-23T01:34:47.429Z,48.20
2018-11-23T01:37:51.602Z,49.63
2018-11-23T01:40:55.607Z,55.70
2018-11-23T01:43:59.622Z,51.17
2018-11-23T01:47:03.644Z,46.47
2018-11-23T01:50:09.805Z,50.43
2018-11-23T01:53:13.818Z,50.10
2018-11-23T01:56:17.829Z,51.40
2018-11-23T01:59:21.849Z,52.53
2018-11-23T02:02:25.840Z,51.17
2018-11-23T02:05:29.852Z,46.10
2018-11-23T02:08:33.924Z,50.87
2018-11-23T02:11:38.094Z,50.27
2018-11-23T02:14:41.900Z,56.20
2018-11-23T02:17:46.365Z,56.63
2018-11-23T02:20:50.509Z,55.07
2018-11-23T02:23:54.550Z,46.10
2018-11-23T02:26:58.542Z,52.13
2018-11-23T02:30:02.619Z,49.33
2018-11-23T02:33:06.618Z,54.80
2018-11-23T02:36:11.138Z,55.63
2018-11-23T02:39:15.129Z,58.47
2018-11-23T02:42:19.121Z,61.07
2018-11-23T02:45:24.044Z,56.90
2018-11-23T02:48:28.221Z,50.97
2018-11-23T02:51:32.230Z,51.90
2018-11-23T02:54:36.232Z,51.93
2018-11-23T02:57:40.231Z,51.37
2018-11-23T03:00:44.233Z,56.07
2018-11-23T03:03:48.218Z,56.30
2018-11-23T03:06:52.221Z,51.60
2018-11-23T03:09:56.204Z,53.53
2018-11-23T03:13:00.205Z,51.93
2018-11-23T03:16:04.228Z,49.77
2018-11-23T03:19:08.565Z,54.03
2018-11-23T03:22:12.572Z,53.67
2018-11-23T03:25:16.620Z,50.10
2018-11-23T03:28:20.628Z,51.30
2018-11-23T03:31:25.615Z,47.47
2018-11-23T03:34:29.603Z,55.60
2018-11-23T03:37:33.610Z,53.43
2018-11-23T03:40:37.630Z,51.60
2018-11-23T03:43:41.735Z,60.83
2018-11-23T03:46:45.754Z,50.90
2018-11-23T03:49:49.753Z,55.20
2018-11-23T03:52:53.773Z,51.80
2018-11-23T03:55:57.795Z,59.57
2018-11-23T03:59:01.850Z,59.00
2018-11-23T04:02:06.426Z,54.73
2018-11-23T04:05:10.433Z,56.83
2018-11-23T04:08:14.431Z,50.03
2018-11-23T04:11:18.457Z,58.90
2018-11-23T04:14:22.547Z,53.83
2018-11-23T04:17:26.579Z,51.60
2018-11-23T04:20:30.591Z,59.10
2018-11-23T04:23:34.606Z,57.73
2018-11-23T04:26:38.626Z,56.63
2018-11-23T04:29:42.642Z,54.10
2018-11-23T04:32:47.682Z,50.40
2018-11-23T04:35:51.792Z,60.43
2018-11-23T04:38:55.793Z,58.90
2018-11-23T04:41:59.861Z,56.00
2018-11-23T04:45:03.918Z,52.90
2018-11-23T04:48:07.922Z,50.53
2018-11-23T04:51:11.957Z,60.47
2018-11-23T04:54:16.006Z,61.57
2018-11-23T04:57:20.014Z,61.20
2018-11-23T05:00:24.052Z,58.10
2018-11-23T05:03:28.062Z,54.60
2018-11-23T05:06:32.069Z,61.20
2018-11-23T05:09:36.098Z,55.33
2018-11-23T05:12:40.630Z,58.83
2018-11-23T05:15:44.661Z,61.20
2018-11-23T05:18:48.679Z,63.93
2018-11-23T05:21:52.682Z,65.80
2018-11-23T05:24:56.694Z,57.97
2018-11-23T05:28:00.714Z,58.60
2018-11-23T05:31:05.394Z,57.40
2018-11-23T05:34:09.402Z,61.70
2018-11-23T05:37:13.566Z,54.80
2018-11-23T05:40:20.293Z,64.10
2018-11-23T05:43:24.463Z,67.77
2018-11-23T05:46:35.306Z,60.60
2018-11-23T05:49:40.556Z,61.47
2018-11-23T05:52:48.004Z,63.13
2018-11-23T05:55:52.130Z,64.57
2018-11-23T05:58:56.150Z,64.87
2018-11-23T06:02:00.167Z,64.47
2018-11-23T06:05:04.466Z,62.47
2018-11-23T06:08:08.481Z,60.23
2018-11-23T06:11:12.501Z,65.37
2018-11-23T06:14:16.500Z,63.37
2018-11-23T06:17:20.563Z,58.33
2018-11-23T06:20:25.811Z,56.97
2018-11-23T06:23:29.815Z,50.73
2018-11-23T06:26:33.997Z,49.87
2018-11-23T06:29:38.029Z,66.47
2018-11-23T06:32:53.389Z,59.40
2018-11-23T06:35:57.476Z,51.60
2018-11-23T06:39:01.498Z,53.03
2018-11-23T06:42:05.862Z,48.83
2018-11-23T06:45:10.408Z,54.80
2018-11-23T06:48:14.430Z,57.00
2018-11-23T06:51:18.439Z,52.60
2018-11-23T06:54:22.497Z,60.60
2018-11-23T06:57:26.502Z,51.83
2018-11-23T07:00:30.505Z,50.60
2018-11-23T07:03:34.525Z,56.90
2018-11-23T07:06:38.529Z,52.27
2018-11-23T07:09:42.547Z,54.10
2018-11-23T07:12:46.564Z,49.00
2018-11-23T07:15:50.576Z,55.33
2018-11-23T07:18:54.594Z,49.47
2018-11-23T07:21:58.601Z,59.17
2018-11-23T07:25:02.600Z,51.00
2018-11-23T07:28:06.628Z,57.77
2018-11-23T07:31:10.627Z,47.50
2018-11-23T07:34:14.646Z,45.40
2018-11-23T07:37:18.683Z,51.47
2018-11-23T07:40:35.869Z,44.70
2018-11-23T07:43:39.945Z,46.93
2018-11-23T07:46:43.963Z,50.37
2018-11-23T07:49:48.219Z,50.40
2018-11-23T07:52:52.234Z,57.87
2018-11-23T07:55:56.233Z,51.13
2018-11-23T07:59:00.287Z,55.30
2018-11-23T08:02:04.695Z,51.33
2018-11-23T08:05:09.948Z,53.40
2018-11-23T08:08:14.924Z,50.57
2018-11-23T08:11:18.949Z,46.33
2018-11-23T08:14:23.302Z,51.60
2018-11-23T08:17:27.345Z,51.60
2018-11-23T08:20:31.336Z,44.50
2018-11-23T08:23:35.358Z,56.20
2018-11-23T08:26:39.374Z,52.13
2018-11-23T08:29:43.378Z,58.40
2018-11-23T08:32:47.489Z,51.47
2018-11-23T08:35:51.608Z,54.67
2018-11-23T08:38:55.601Z,53.83
2018-11-23T08:41:59.609Z,58.17
2018-11-23T08:45:04.052Z,56.40
2018-11-23T08:48:08.076Z,51.77
2018-11-23T08:51:12.309Z,60.43
2018-11-23T08:54:16.329Z,56.50
2018-11-23T08:57:20.345Z,52.07
2018-11-23T09:00:26.512Z,52.63
2018-11-23T09:03:30.516Z,58.03
2018-11-23T09:06:34.568Z,61.33
2018-11-23T09:09:38.572Z,52.13
2018-11-23T09:12:43.369Z,57.60
2018-11-23T09:15:47.409Z,56.03
2018-11-23T09:18:51.416Z,60.30
2018-11-23T09:21:55.438Z,56.50
2018-11-23T09:24:59.446Z,52.17
2018-11-23T09:28:03.465Z,60.00
2018-11-23T09:31:07.498Z,60.47
2018-11-23T09:34:11.501Z,58.43
2018-11-23T09:37:15.510Z,56.97
2018-11-23T09:40:23.915Z,58.90
2018-11-23T09:43:27.922Z,62.63
2018-11-23T09:46:31.962Z,56.00
2018-11-23T09:49:35.987Z,58.43
2018-11-23T09:52:40.275Z,58.13
2018-11-23T09:55:44.324Z,56.47
2018-11-23T09:58:48.355Z,63.23
2018-11-23T10:01:52.359Z,57.23
2018-11-23T10:04:56.484Z,56.03
2018-11-23T10:08:02.694Z,55.80
2018-11-23T10:11:06.722Z,56.63
2018-11-23T10:14:10.925Z,53.73
2018-11-23T10:17:14.959Z,54.30
2018-11-23T10:20:20.403Z,53.53
2018-11-23T10:23:24.393Z,54.43
2018-11-23T10:26:28.410Z,55.70
2018-11-23T10:29:32.422Z,53.97
2018-11-23T10:32:36.431Z,51.63
2018-11-23T10:35:40.441Z,51.87
2018-11-23T10:38:44.449Z,52.67
2018-11-23T10:41:48.463Z,48.47
2018-11-23T10:44:52.481Z,50.50
2018-11-23T10:47:57.449Z,51.33
2018-11-23T10:51:01.459Z,50.37
2018-11-23T10:54:05.522Z,50.03
2018-11-23T10:57:09.521Z,47.90
2018-11-23T11:00:20.884Z,47.80
2018-11-23T11:03:33.384Z,48.90
2018-11-23T11:06:42.785Z,48.67
2018-11-23T11:09:46.796Z,46.93
2018-11-23T11:12:50.803Z,46.60
2018-11-23T11:15:54.835Z,48.07
2018-11-23T11:18:58.847Z,47.57
2018-11-23T11:22:02.850Z,50.23
2018-11-23T11:25:07.846Z,44.07
2018-11-23T11:28:11.854Z,44.93
2018-11-23T11:31:15.867Z,49.40
2018-11-23T11:34:19.894Z,41.87
2018-11-23T11:37:23.894Z,43.80
2018-11-23T11:40:27.913Z,40.73
2018-11-23T11:43:31.933Z,48.07
2018-11-23T11:46:36.037Z,41.33
2018-11-23T11:49:40.030Z,42.27
2018-11-23T11:52:45.500Z,43.63
2018-11-23T11:55:49.526Z,48.23
2018-11-23T11:58:53.537Z,46.00
2018-11-23T12:01:57.547Z,38.90
2018-11-23T12:05:01.562Z,40.03
2018-11-23T12:08:05.918Z,43.83
2018-11-23T12:11:09.919Z,44.67
2018-11-23T12:14:13.938Z,43.60
2018-11-23T12:17:17.945Z,43.33
2018-11-23T12:20:23.395Z,41.93
2018-11-23T12:23:27.411Z,39.33
2018-11-23T12:26:31.425Z,50.53
2018-11-23T12:29:35.465Z,42.53
2018-11-23T12:32:39.861Z,45.90
2018-11-23T12:35:43.878Z,41.63
2018-11-23T12:38:47.894Z,40.63
2018-11-23T12:41:51.905Z,37.60
2018-11-23T12:44:55.917Z,40.10
2018-11-23T12:47:59.944Z,37.27
2018-11-23T12:51:03.938Z,36.73
2018-11-23T12:54:07.941Z,41.73
2018-11-23T12:57:11.965Z,37.60
2018-11-23T13:00:19.403Z,38.93
2018-11-23T13:03:23.400Z,39.23
2018-11-23T13:06:27.418Z,37.43
2018-11-23T13:09:31.430Z,41.30
2018-11-23T13:12:35.426Z,35.27
2018-11-23T13:15:39.691Z,35.40
2018-11-23T13:18:43.702Z,38.73
2018-11-23T13:21:47.708Z,37.33
2018-11-23T13:24:52.075Z,37.20
2018-11-23T13:27:56.401Z,37.13
2018-11-23T13:31:00.420Z,34.47
2018-11-23T13:34:04.410Z,34.87
2018-11-23T13:37:08.427Z,34.70
2018-11-23T13:40:14.513Z,38.20
2018-11-23T13:43:18.563Z,36.87
2018-11-23T13:46:22.561Z,39.00
2018-11-23T13:49:26.861Z,44.23
2018-11-23T13:52:30.889Z,36.67
2018-11-23T13:55:34.891Z,36.07
2018-11-23T13:58:38.995Z,37.77
2018-11-23T14:01:43.029Z,36.53
2018-11-23T14:04:47.069Z,41.23
2018-11-23T14:07:52.590Z,35.87
2018-11-23T14:10:56.592Z,36.47
2018-11-23T14:14:00.622Z,40.40
2018-11-23T14:17:04.637Z,35.10
2018-11-23T14:20:10.414Z,41.97
2018-11-23T14:23:14.400Z,43.17
2018-11-23T14:26:18.410Z,41.10
2018-11-23T14:29:22.446Z,42.90
2018-11-23T14:32:26.468Z,39.70
2018-11-23T14:35:31.473Z,35.67
2018-11-23T14:38:35.486Z,35.90
2018-11-23T14:41:39.606Z,42.13
2018-11-23T14:44:43.614Z,37.80
2018-11-23T14:47:48.151Z,42.17
2018-11-23T14:50:53.195Z,47.43
2018-11-23T14:53:57.212Z,35.97
2018-11-23T14:57:01.206Z,36.17
2018-11-23T15:00:10.145Z,35.93
2018-11-23T15:03:14.162Z,42.03
2018-11-23T15:06:18.169Z,36.20
2018-11-23T15:09:22.202Z,36.70
2018-11-23T15:12:26.189Z,35.60
2018-11-23T15:15:31.558Z,43.43
2018-11-23T15:18:35.581Z,38.93
2018-11-23T15:21:39.586Z,40.50
2018-11-23T15:24:43.666Z,41.13
2018-11-23T15:27:47.689Z,42.37
2018-11-23T15:30:51.711Z,40.77
2018-11-23T15:33:55.721Z,38.50
2018-11-23T15:36:59.737Z,40.60
2018-11-23T15:40:03.767Z,39.30
2018-11-23T15:43:09.310Z,39.20
2018-11-23T15:46:13.342Z,39.50
2018-11-23T15:49:17.343Z,42.87
2018-11-23T15:52:21.366Z,42.07
2018-11-23T15:55:27.734Z,39.90
2018-11-23T15:58:31.730Z,37.27
2018-11-23T16:01:35.743Z,36.90
2018-11-23T16:04:39.780Z,38.67
2018-11-23T16:07:44.074Z,37.93
2018-11-23T16:10:48.139Z,38.53
2018-11-23T16:13:52.141Z,45.40
2018-11-23T16:16:56.181Z,38.90
2018-11-23T16:20:00.186Z,40.20
2018-11-23T16:23:05.613Z,38.83
2018-11-23T16:26:09.625Z,42.20
2018-11-23T16:29:13.679Z,42.67
2018-11-23T16:32:17.695Z,41.23
2018-11-23T16:35:23.203Z,45.10
2018-11-23T16:38:27.219Z,42.87
2018-11-23T16:41:31.235Z,47.93
2018-11-23T16:44:35.252Z,46.30
2018-11-23T16:47:39.323Z,38.17
2018-11-23T16:50:43.898Z,45.33
2018-11-23T16:53:47.929Z,46.47
2018-11-23T16:56:51.987Z,40.83
2018-11-23T16:59:56.016Z,48.23
2018-11-23T17:03:02.531Z,45.80
2018-11-23T17:06:06.589Z,42.20
2018-11-23T17:09:10.640Z,38.10
2018-11-23T17:12:14.670Z,40.27
2018-11-23T17:15:20.230Z,44.37
2018-11-23T17:18:24.262Z,42.53
2018-11-23T17:21:28.319Z,43.53
2018-11-23T17:24:32.347Z,42.43
2018-11-23T17:27:36.394Z,41.50
2018-11-23T17:30:40.557Z,42.40
2018-11-23T17:33:44.604Z,42.97
2018-11-23T17:36:48.618Z,35.77
2018-11-23T17:39:52.649Z,36.63
2018-11-23T17:42:56.978Z,38.73
2018-11-23T17:46:00.985Z,39.87
2018-11-23T17:49:05.028Z,39.50
2018-11-23T17:52:09.050Z,43.90
2018-11-23T17:55:13.722Z,38.97
2018-11-23T17:58:17.745Z,44.53
2018-11-23T18:01:21.780Z,42.37
2018-11-23T18:04:25.848Z,43.60
2018-11-23T18:07:29.865Z,42.10
2018-11-23T18:10:34.625Z,42.70
2018-11-23T18:13:38.672Z,49.20
2018-11-23T18:16:42.666Z,44.10
2018-11-23T18:19:46.722Z,39.30
2018-11-23T18:22:51.502Z,41.50
2018-11-23T18:25:55.546Z,49.17
2018-11-23T18:28:59.569Z,52.33
2018-11-23T18:32:03.595Z,61.97
2018-11-23T18:35:09.842Z,48.93
2018-11-23T18:38:13.887Z,51.57
2018-11-23T18:41:17.930Z,50.03
2018-11-23T18:44:21.959Z,43.80
2018-11-23T18:47:25.994Z,51.20
2018-11-23T18:50:30.020Z,47.37
2018-11-23T18:53:34.046Z,49.73
2018-11-23T18:56:38.082Z,50.53
2018-11-23T18:59:42.134Z,49.20
2018-11-23T19:02:47.172Z,51.07
2018-11-23T19:05:51.210Z,52.67
2018-11-23T19:08:55.254Z,48.27
2018-11-23T19:11:59.299Z,47.80
2018-11-23T19:15:03.401Z,49.87
2018-11-23T19:18:07.485Z,46.97
2018-11-23T19:21:12.217Z,48.23
2018-11-23T19:24:16.254Z,46.13
2018-11-23T19:27:20.278Z,41.90
2018-11-23T19:30:28.570Z,45.77
2018-11-23T19:33:29.234Z,44.90
2018-11-23T19:36:33.267Z,121.53
2018-11-23T19:39:37.298Z,60.30
2018-11-23T19:42:41.399Z,50.10
2018-11-23T19:45:45.426Z,50.13
2018-11-23T19:48:49.453Z,50.83
2018-11-23T19:51:53.474Z,47.63
2018-11-23T19:54:57.511Z,46.37
2018-11-23T19:58:01.530Z,42.60
2018-11-23T20:01:05.867Z,48.40
2018-11-23T20:04:09.898Z,47.40
2018-11-23T20:07:13.965Z,45.77
2018-11-23T20:10:18.875Z,45.60
2018-11-23T20:13:22.910Z,49.33
2018-11-23T20:16:26.967Z,55.70
2018-11-23T20:19:31.020Z,52.57
2018-11-23T20:22:35.091Z,49.67
2018-11-23T20:25:39.127Z,50.00
2018-11-23T20:28:43.203Z,52.10
2018-11-23T20:31:47.310Z,49.07
2018-11-23T20:34:51.346Z,47.97
2018-11-23T20:37:55.375Z,49.90
2018-11-23T20:40:59.385Z,50.47
2018-11-23T20:44:03.426Z,46.90
2018-11-23T20:47:07.532Z,50.23
2018-11-23T20:50:13.591Z,44.13
2018-11-23T20:53:17.619Z,49.23
2018-11-23T20:56:21.647Z,49.03
2018-11-23T20:59:25.689Z,55.90
2018-11-23T21:02:29.718Z,49.37
2018-11-23T21:05:33.724Z,51.37
2018-11-23T21:08:37.751Z,51.33
2018-11-23T21:11:41.789Z,50.43
2018-11-23T21:14:45.821Z,45.57
2018-11-23T21:17:49.882Z,61.63
2018-11-23T21:20:53.912Z,64.60
2018-11-23T21:23:57.942Z,48.93
2018-11-23T21:27:01.998Z,44.43
2018-11-23T21:30:12.119Z,46.40
2018-11-23T21:33:16.170Z,47.47
2018-11-23T21:36:20.202Z,48.30
2018-11-23T21:39:24.250Z,45.70
2018-11-23T21:42:28.354Z,53.60
2018-11-23T21:45:32.376Z,44.50
2018-11-23T21:48:36.421Z,48.70
2018-11-23T21:51:40.466Z,40.83
2018-11-23T21:54:44.489Z,42.30
2018-11-23T21:57:48.587Z,43.47
2018-11-23T22:00:53.173Z,49.20
2018-11-23T22:03:56.653Z,48.00
2018-11-23T22:07:00.698Z,48.17
2018-11-23T22:10:10.454Z,47.37
2018-11-23T22:13:14.487Z,43.20
2018-11-23T22:16:18.537Z,46.77
2018-11-23T22:19:22.566Z,46.70
2018-11-23T22:22:26.597Z,44.00
2018-11-23T22:25:30.626Z,46.53
2018-11-23T22:28:34.672Z,41.27
2018-11-23T22:31:38.699Z,42.57
2018-11-23T22:34:42.721Z,42.53
2018-11-23T22:37:46.774Z,43.93
2018-11-23T22:40:50.799Z,46.17
2018-11-23T22:43:54.886Z,46.77
2018-11-23T22:46:59.677Z,47.70
2018-11-23T22:50:03.953Z,45.80
2018-11-23T22:53:07.995Z,46.07
2018-11-23T22:56:12.029Z,41.33
2018-11-23T22:59:16.050Z,47.23
2018-11-23T23:02:20.372Z,43.20
2018-11-23T23:05:24.765Z,45.40
2018-11-23T23:08:28.852Z,43.57
2018-11-23T23:11:32.871Z,42.23
2018-11-23T23:14:37.483Z,43.70
2018-11-23T23:17:41.834Z,44.87
2018-11-23T23:20:45.867Z,41.23
2018-11-23T23:23:49.887Z,42.37
2018-11-23T23:26:53.928Z,39.10
2018-11-23T23:29:57.956Z,36.03
2018-11-23T23:33:01.984Z,39.90
2018-11-23T23:36:06.004Z,37.87
2018-11-23T23:39:10.123Z,36.50
2018-11-23T23:42:14.177Z,39.20
2018-11-23T23:45:18.691Z,33.50
2018-11-23T23:48:22.781Z,31.10
2018-11-23T23:51:26.870Z,32.33
2018-11-23T23:54:30.884Z,31.73
2018-11-23T23:57:34.960Z,35.40
